sensor_id;sensor_type;location;lat;lon;timestamp;P1;durP1;ratioP1;P2;durP2;ratioP2
74963;SDS011;63521;51.900;4.748;2024-01-06T12:47:11;3.10;;;2.28;;
74963;SDS011;63521;51.900;4.748;2024-01-06T12:49:37;4.32;;;2.17;;
74963;SDS011;63521;51.900;4.748;2024-01-06T12:52:03;4.20;;;2.28;;
74963;SDS011;63521;51.900;4.748;2024-01-06T12:54:28;4.15;;;2.10;;
74963;SDS011;63521;51.900;4.748;2024-01-06T12:56:54;6.32;;;2.42;;
74963;SDS011;63521;51.900;4.748;2024-01-06T12:59:20;3.67;;;2.10;;
74963;SDS011;63521;51.900;4.748;2024-01-06T13:01:45;3.60;;;2.20;;
74963;SDS011;63521;51.900;4.748;2024-01-06T13:04:10;3.47;;;2.08;;
74963;SDS011;63521;51.900;4.748;2024-01-06T13:06:36;3.65;;;2.30;;
74963;SDS011;63521;51.900;4.748;2024-01-06T13:09:01;3.80;;;2.22;;
74963;SDS011;63521;51.900;4.748;2024-01-06T13:11:31;3.42;;;1.95;;
74963;SDS011;63521;51.900;4.748;2024-01-06T13:13:56;4.43;;;2.35;;
74963;SDS011;63521;51.900;4.748;2024-01-06T13:16:22;3.08;;;1.90;;
74963;SDS011;63521;51.900;4.748;2024-01-06T13:18:47;3.08;;;2.00;;
74963;SDS011;63521;51.900;4.748;2024-01-06T13:21:13;5.07;;;2.08;;
74963;SDS011;63521;51.900;4.748;2024-01-06T13:23:38;4.72;;;2.35;;
74963;SDS011;63521;51.900;4.748;2024-01-06T13:26:03;4.25;;;2.33;;
74963;SDS011;63521;51.900;4.748;2024-01-06T13:28:29;3.67;;;2.30;;
74963;SDS011;63521;51.900;4.748;2024-01-06T13:30:54;3.13;;;2.00;;
74963;SDS011;63521;51.900;4.748;2024-01-06T13:33:19;3.72;;;2.28;;
74963;SDS011;63521;51.900;4.748;2024-01-06T13:35:45;3.38;;;2.22;;
74963;SDS011;63521;51.900;4.748;2024-01-06T13:38:10;3.60;;;2.28;;
74963;SDS011;63521;51.900;4.748;2024-01-06T13:40:36;3.03;;;2.13;;
74963;SDS011;63521;51.900;4.748;2024-01-06T13:43:02;3.83;;;2.00;;
74963;SDS011;63521;51.900;4.748;2024-01-06T13:45:30;3.75;;;2.10;;
74963;SDS011;63521;51.900;4.748;2024-01-06T13:47:55;2.95;;;1.80;;
74963;SDS011;63521;51.900;4.748;2024-01-06T13:50:21;3.60;;;2.20;;
74963;SDS011;63521;51.900;4.748;2024-01-06T13:52:46;5.07;;;2.10;;
74963;SDS011;63521;51.900;4.748;2024-01-06T13:55:13;2.75;;;1.95;;
74963;SDS011;63521;51.900;4.748;2024-01-06T13:57:38;2.78;;;1.85;;
74963;SDS011;63521;51.900;4.748;2024-01-06T14:00:08;3.03;;;1.90;;
74963;SDS011;63521;51.900;4.748;2024-01-06T14:02:37;4.28;;;2.10;;
74963;SDS011;63521;51.900;4.748;2024-01-06T14:05:06;6.25;;;2.03;;
74963;SDS011;63521;51.900;4.748;2024-01-06T14:07:34;3.38;;;1.85;;
74963;SDS011;63521;51.900;4.748;2024-01-06T14:10:01;3.25;;;2.03;;
74963;SDS011;63521;51.900;4.748;2024-01-06T14:12:29;3.65;;;1.88;;
74963;SDS011;63521;51.900;4.748;2024-01-06T14:14:55;3.67;;;1.95;;
74963;SDS011;63521;51.900;4.748;2024-01-06T14:17:21;3.35;;;2.08;;
74963;SDS011;63521;51.900;4.748;2024-01-06T14:19:59;2.95;;;2.10;;
74963;SDS011;63521;51.900;4.748;2024-01-06T14:22:25;4.10;;;1.98;;
74963;SDS011;63521;51.900;4.748;2024-01-06T14:24:51;4.05;;;2.08;;
74963;SDS011;63521;51.900;4.748;2024-01-06T14:27:17;3.15;;;2.05;;
74963;SDS011;63521;51.900;4.748;2024-01-06T14:29:42;2.75;;;1.90;;
74963;SDS011;63521;51.900;4.748;2024-01-06T14:32:08;4.13;;;2.30;;
74963;SDS011;63521;51.900;4.748;2024-01-06T14:34:33;4.20;;;2.22;;
74963;SDS011;63521;51.900;4.748;2024-01-06T14:36:59;3.20;;;1.88;;
74963;SDS011;63521;51.900;4.748;2024-01-06T14:39:25;3.10;;;2.00;;
74963;SDS011;63521;51.900;4.748;2024-01-06T14:41:50;2.78;;;1.55;;
74963;SDS011;63521;51.900;4.748;2024-01-06T14:44:17;3.22;;;1.95;;
74963;SDS011;63521;51.900;4.748;2024-01-06T14:46:45;3.15;;;1.95;;
74963;SDS011;63521;51.900;4.748;2024-01-06T14:49:15;3.83;;;2.20;;
74963;SDS011;63521;51.900;4.748;2024-01-06T14:51:41;3.63;;;1.95;;
74963;SDS011;63521;51.900;4.748;2024-01-06T14:54:07;3.33;;;1.90;;
74963;SDS011;63521;51.900;4.748;2024-01-06T14:56:33;4.38;;;2.13;;
74963;SDS011;63521;51.900;4.748;2024-01-06T14:59:03;3.83;;;2.00;;
74963;SDS011;63521;51.900;4.748;2024-01-06T15:01:29;4.60;;;2.08;;
74963;SDS011;63521;51.900;4.748;2024-01-06T15:03:54;2.67;;;1.80;;
74963;SDS011;63521;51.900;4.748;2024-01-06T15:06:20;3.70;;;2.00;;
74963;SDS011;63521;51.900;4.748;2024-01-06T15:08:46;4.80;;;2.00;;
74963;SDS011;63521;51.900;4.748;2024-01-06T15:11:11;3.20;;;1.92;;
74963;SDS011;63521;51.900;4.748;2024-01-06T15:13:37;4.50;;;2.00;;
74963;SDS011;63521;51.900;4.748;2024-01-06T15:16:02;3.13;;;1.88;;
74963;SDS011;63521;51.900;4.748;2024-01-06T15:18:28;4.13;;;2.00;;
74963;SDS011;63521;51.900;4.748;2024-01-06T15:20:53;3.97;;;2.17;;
74963;SDS011;63521;51.900;4.748;2024-01-06T15:23:19;3.58;;;1.85;;
74963;SDS011;63521;51.900;4.748;2024-01-06T15:25:44;3.05;;;1.70;;
74963;SDS011;63521;51.900;4.748;2024-01-06T15:28:10;3.72;;;2.20;;
74963;SDS011;63521;51.900;4.748;2024-01-06T15:30:35;2.80;;;1.77;;
74963;SDS011;63521;51.900;4.748;2024-01-06T15:33:01;3.80;;;2.05;;
74963;SDS011;63521;51.900;4.748;2024-01-06T15:35:26;3.70;;;2.00;;
74963;SDS011;63521;51.900;4.748;2024-01-06T15:37:51;3.10;;;1.92;;
74963;SDS011;63521;51.900;4.748;2024-01-06T15:40:17;3.30;;;2.22;;
74963;SDS011;63521;51.900;4.748;2024-01-06T15:42:42;3.47;;;1.85;;
74963;SDS011;63521;51.900;4.748;2024-01-06T15:45:08;3.28;;;2.10;;
74963;SDS011;63521;51.900;4.748;2024-01-06T15:47:35;3.08;;;1.98;;
74963;SDS011;63521;51.900;4.748;2024-01-06T15:50:00;3.15;;;2.05;;
74963;SDS011;63521;51.900;4.748;2024-01-06T15:52:26;3.28;;;2.13;;
74963;SDS011;63521;51.900;4.748;2024-01-06T15:54:51;3.03;;;2.00;;
74963;SDS011;63521;51.900;4.748;2024-01-06T15:57:17;3.72;;;2.13;;
74963;SDS011;63521;51.900;4.748;2024-01-06T15:59:42;2.97;;;2.00;;
74963;SDS011;63521;51.900;4.748;2024-01-06T16:02:08;3.53;;;2.00;;
74963;SDS011;63521;51.900;4.748;2024-01-06T16:04:34;3.28;;;2.05;;
74963;SDS011;63521;51.900;4.748;2024-01-06T16:06:59;4.07;;;2.20;;
74963;SDS011;63521;51.900;4.748;2024-01-06T16:09:24;2.90;;;2.13;;
74963;SDS011;63521;51.900;4.748;2024-01-06T16:11:51;4.05;;;2.08;;
74963;SDS011;63521;51.900;4.748;2024-01-06T16:14:17;3.15;;;2.17;;
74963;SDS011;63521;51.900;4.748;2024-01-06T16:16:54;5.18;;;2.50;;
74963;SDS011;63521;51.900;4.748;2024-01-06T16:19:20;3.72;;;2.30;;
74963;SDS011;63521;51.900;4.748;2024-01-06T16:21:45;3.63;;;2.10;;
74963;SDS011;63521;51.900;4.748;2024-01-06T16:27:12;3.63;;;2.30;;
74963;SDS011;63521;51.900;4.748;2024-01-06T16:30:23;3.35;;;2.10;;
74963;SDS011;63521;51.900;4.748;2024-01-06T16:32:48;5.13;;;2.28;;
74963;SDS011;63521;51.900;4.748;2024-01-06T16:35:15;3.75;;;2.20;;
74963;SDS011;63521;51.900;4.748;2024-01-06T16:37:41;3.38;;;2.00;;
74963;SDS011;63521;51.900;4.748;2024-01-06T16:40:07;3.05;;;2.03;;
74963;SDS011;63521;51.900;4.748;2024-01-06T16:42:35;3.13;;;2.15;;
74963;SDS011;63521;51.900;4.748;2024-01-06T16:45:01;3.22;;;2.28;;
74963;SDS011;63521;51.900;4.748;2024-01-06T16:47:27;4.60;;;2.60;;
74963;SDS011;63521;51.900;4.748;2024-01-06T16:49:52;4.53;;;2.33;;
74963;SDS011;63521;51.900;4.748;2024-01-06T16:52:17;4.07;;;2.35;;
74963;SDS011;63521;51.900;4.748;2024-01-06T16:54:43;3.70;;;2.28;;
74963;SDS011;63521;51.900;4.748;2024-01-06T16:57:08;4.68;;;2.50;;
74963;SDS011;63521;51.900;4.748;2024-01-06T16:59:33;4.75;;;2.58;;
74963;SDS011;63521;51.900;4.748;2024-01-06T17:01:59;3.38;;;2.13;;
74963;SDS011;63521;51.900;4.748;2024-01-06T17:04:27;4.20;;;2.50;;
74963;SDS011;63521;51.900;4.748;2024-01-06T17:13:58;4.38;;;2.22;;
74963;SDS011;63521;51.900;4.748;2024-01-06T17:16:23;4.13;;;2.25;;
74963;SDS011;63521;51.900;4.748;2024-01-06T17:18:49;5.03;;;2.55;;
74963;SDS011;63521;51.900;4.748;2024-01-06T17:21:14;4.60;;;2.95;;
74963;SDS011;63521;51.900;4.748;2024-01-06T17:23:43;3.90;;;2.53;;
74963;SDS011;63521;51.900;4.748;2024-01-06T17:26:08;4.47;;;2.78;;
74963;SDS011;63521;51.900;4.748;2024-01-06T17:28:33;3.53;;;2.30;;
74963;SDS011;63521;51.900;4.748;2024-01-06T17:30:59;5.80;;;3.00;;
74963;SDS011;63521;51.900;4.748;2024-01-06T17:33:26;3.70;;;2.60;;
74963;SDS011;63521;51.900;4.748;2024-01-06T17:35:51;4.60;;;2.65;;
74963;SDS011;63521;51.900;4.748;2024-01-06T17:38:16;4.32;;;2.88;;
74963;SDS011;63521;51.900;4.748;2024-01-06T17:40:42;3.95;;;2.55;;
74963;SDS011;63521;51.900;4.748;2024-01-06T17:43:07;5.95;;;2.75;;
74963;SDS011;63521;51.900;4.748;2024-01-06T17:45:33;4.38;;;2.80;;
74963;SDS011;63521;51.900;4.748;2024-01-06T17:47:59;4.90;;;2.58;;
74963;SDS011;63521;51.900;4.748;2024-01-06T17:50:25;4.20;;;2.50;;
74963;SDS011;63521;51.900;4.748;2024-01-06T17:52:50;4.80;;;2.72;;
74963;SDS011;63521;51.900;4.748;2024-01-06T17:55:16;3.92;;;2.90;;
74963;SDS011;63521;51.900;4.748;2024-01-06T17:57:42;4.60;;;2.75;;
74963;SDS011;63521;51.900;4.748;2024-01-06T18:00:08;5.35;;;2.80;;
74963;SDS011;63521;51.900;4.748;2024-01-06T18:02:34;4.55;;;2.85;;
74963;SDS011;63521;51.900;4.748;2024-01-06T18:05:00;4.15;;;2.50;;
74963;SDS011;63521;51.900;4.748;2024-01-06T18:07:25;4.50;;;2.65;;
74963;SDS011;63521;51.900;4.748;2024-01-06T18:09:54;4.68;;;2.92;;
74963;SDS011;63521;51.900;4.748;2024-01-06T18:12:21;4.47;;;2.60;;
74963;SDS011;63521;51.900;4.748;2024-01-06T18:14:46;4.90;;;2.90;;
74963;SDS011;63521;51.900;4.748;2024-01-06T18:17:11;3.88;;;2.50;;
74963;SDS011;63521;51.900;4.748;2024-01-06T18:19:38;4.57;;;2.95;;
74963;SDS011;63521;51.900;4.748;2024-01-06T18:22:03;5.25;;;2.70;;
74963;SDS011;63521;51.900;4.748;2024-01-06T18:24:29;4.45;;;2.72;;
74963;SDS011;63521;51.900;4.748;2024-01-06T18:26:55;4.63;;;2.72;;
74963;SDS011;63521;51.900;4.748;2024-01-06T18:29:27;4.05;;;2.78;;
74963;SDS011;63521;51.900;4.748;2024-01-06T18:31:54;5.10;;;2.75;;
74963;SDS011;63521;51.900;4.748;2024-01-06T18:34:19;4.55;;;2.65;;
74963;SDS011;63521;51.900;4.748;2024-01-06T18:36:45;3.45;;;2.28;;
74963;SDS011;63521;51.900;4.748;2024-01-06T18:39:11;4.15;;;2.30;;
74963;SDS011;63521;51.900;4.748;2024-01-06T18:41:37;5.65;;;2.80;;
74963;SDS011;63521;51.900;4.748;2024-01-06T18:44:04;4.65;;;2.50;;
74963;SDS011;63521;51.900;4.748;2024-01-06T18:46:34;4.78;;;2.53;;
74963;SDS011;63521;51.900;4.748;2024-01-06T18:49:02;4.40;;;2.70;;
74963;SDS011;63521;51.900;4.748;2024-01-06T18:51:28;5.18;;;2.65;;
74963;SDS011;63521;51.900;4.748;2024-01-06T18:53:58;3.53;;;2.33;;
74963;SDS011;63521;51.900;4.748;2024-01-06T18:56:31;4.88;;;2.83;;
74963;SDS011;63521;51.900;4.748;2024-01-06T18:58:57;4.63;;;2.70;;
74963;SDS011;63521;51.900;4.748;2024-01-06T19:01:22;4.80;;;2.53;;
74963;SDS011;63521;51.900;4.748;2024-01-06T19:03:47;5.45;;;2.90;;
74963;SDS011;63521;51.900;4.748;2024-01-06T19:06:13;3.97;;;2.65;;
74963;SDS011;63521;51.900;4.748;2024-01-06T19:08:39;4.68;;;2.80;;
74963;SDS011;63521;51.900;4.748;2024-01-06T19:11:05;4.72;;;2.83;;
74963;SDS011;63521;51.900;4.748;2024-01-06T19:13:30;6.65;;;2.97;;
74963;SDS011;63521;51.900;4.748;2024-01-06T19:15:56;4.95;;;2.67;;
74963;SDS011;63521;51.900;4.748;2024-01-06T19:18:21;4.97;;;2.85;;
74963;SDS011;63521;51.900;4.748;2024-01-06T19:20:46;4.55;;;2.50;;
74963;SDS011;63521;51.900;4.748;2024-01-06T19:23:12;5.63;;;3.10;;
74963;SDS011;63521;51.900;4.748;2024-01-06T19:25:38;5.53;;;2.90;;
74963;SDS011;63521;51.900;4.748;2024-01-06T19:28:06;5.28;;;3.03;;
74963;SDS011;63521;51.900;4.748;2024-01-06T19:30:32;5.80;;;2.88;;
74963;SDS011;63521;51.900;4.748;2024-01-06T19:32:58;4.70;;;2.60;;
74963;SDS011;63521;51.900;4.748;2024-01-06T19:35:24;5.15;;;2.72;;
74963;SDS011;63521;51.900;4.748;2024-01-06T19:37:49;5.15;;;3.00;;
74963;SDS011;63521;51.900;4.748;2024-01-06T19:43:52;4.80;;;2.70;;
74963;SDS011;63521;51.900;4.748;2024-01-06T19:46:17;5.38;;;3.00;;
74963;SDS011;63521;51.900;4.748;2024-01-06T19:48:43;4.90;;;3.13;;
74963;SDS011;63521;51.900;4.748;2024-01-06T19:51:08;4.72;;;2.83;;
74963;SDS011;63521;51.900;4.748;2024-01-06T19:53:34;4.18;;;2.65;;
74963;SDS011;63521;51.900;4.748;2024-01-06T19:55:59;5.05;;;2.90;;
74963;SDS011;63521;51.900;4.748;2024-01-06T19:58:28;4.70;;;2.85;;
74963;SDS011;63521;51.900;4.748;2024-01-06T20:00:53;4.97;;;2.75;;
74963;SDS011;63521;51.900;4.748;2024-01-06T20:03:19;5.50;;;2.88;;
74963;SDS011;63521;51.900;4.748;2024-01-06T20:05:44;5.55;;;2.95;;
74963;SDS011;63521;51.900;4.748;2024-01-06T20:08:10;5.10;;;2.88;;
74963;SDS011;63521;51.900;4.748;2024-01-06T20:10:35;4.95;;;2.95;;
74963;SDS011;63521;51.900;4.748;2024-01-06T20:13:01;5.72;;;2.78;;
74963;SDS011;63521;51.900;4.748;2024-01-06T20:15:27;4.93;;;2.78;;
74963;SDS011;63521;51.900;4.748;2024-01-06T20:17:52;4.50;;;2.67;;
74963;SDS011;63521;51.900;4.748;2024-01-06T20:20:18;5.10;;;2.90;;
74963;SDS011;63521;51.900;4.748;2024-01-06T20:22:43;5.88;;;3.08;;
74963;SDS011;63521;51.900;4.748;2024-01-06T20:26:03;4.53;;;2.67;;
74963;SDS011;63521;51.900;4.748;2024-01-06T20:28:29;4.82;;;2.92;;
74963;SDS011;63521;51.900;4.748;2024-01-06T20:30:54;5.18;;;2.65;;
74963;SDS011;63521;51.900;4.748;2024-01-06T20:33:20;6.25;;;3.08;;
74963;SDS011;63521;51.900;4.748;2024-01-06T20:35:45;6.32;;;2.70;;
74963;SDS011;63521;51.900;4.748;2024-01-06T20:38:10;4.45;;;2.45;;
74963;SDS011;63521;51.900;4.748;2024-01-06T20:40:36;4.50;;;2.92;;
74963;SDS011;63521;51.900;4.748;2024-01-06T20:43:02;4.75;;;2.78;;
74963;SDS011;63521;51.900;4.748;2024-01-06T20:45:27;5.30;;;2.80;;
74963;SDS011;63521;51.900;4.748;2024-01-06T20:47:52;5.25;;;3.10;;
74963;SDS011;63521;51.900;4.748;2024-01-06T20:50:18;4.80;;;2.78;;
74963;SDS011;63521;51.900;4.748;2024-01-06T20:52:45;4.53;;;2.92;;
74963;SDS011;63521;51.900;4.748;2024-01-06T20:55:11;4.65;;;2.85;;
74963;SDS011;63521;51.900;4.748;2024-01-06T20:57:36;5.80;;;2.75;;
74963;SDS011;63521;51.900;4.748;2024-01-06T21:00:02;4.40;;;2.80;;
74963;SDS011;63521;51.900;4.748;2024-01-06T21:02:28;5.47;;;2.92;;
74963;SDS011;63521;51.900;4.748;2024-01-06T21:04:54;5.88;;;3.08;;
74963;SDS011;63521;51.900;4.748;2024-01-06T21:07:19;5.32;;;2.80;;
74963;SDS011;63521;51.900;4.748;2024-01-06T21:09:45;5.57;;;2.80;;
74963;SDS011;63521;51.900;4.748;2024-01-06T21:12:10;5.57;;;2.97;;
74963;SDS011;63521;51.900;4.748;2024-01-06T21:14:35;5.80;;;2.67;;
74963;SDS011;63521;51.900;4.748;2024-01-06T21:17:03;5.20;;;2.80;;
74963;SDS011;63521;51.900;4.748;2024-01-06T21:19:28;4.55;;;2.63;;
74963;SDS011;63521;51.900;4.748;2024-01-06T21:21:54;4.88;;;2.83;;
74963;SDS011;63521;51.900;4.748;2024-01-06T21:24:19;5.63;;;3.15;;
74963;SDS011;63521;51.900;4.748;2024-01-06T21:26:45;5.80;;;3.00;;
74963;SDS011;63521;51.900;4.748;2024-01-06T21:29:10;4.38;;;2.83;;
74963;SDS011;63521;51.900;4.748;2024-01-06T21:31:37;5.60;;;3.00;;
74963;SDS011;63521;51.900;4.748;2024-01-06T21:34:03;4.60;;;3.20;;
74963;SDS011;63521;51.900;4.748;2024-01-06T21:36:28;5.65;;;2.78;;
74963;SDS011;63521;51.900;4.748;2024-01-06T21:38:54;5.30;;;2.92;;
74963;SDS011;63521;51.900;4.748;2024-01-06T21:41:25;6.78;;;3.28;;
74963;SDS011;63521;51.900;4.748;2024-01-06T21:43:50;6.00;;;2.83;;
74963;SDS011;63521;51.900;4.748;2024-01-06T21:46:16;5.22;;;3.10;;
74963;SDS011;63521;51.900;4.748;2024-01-06T21:48:42;6.38;;;3.28;;
74963;SDS011;63521;51.900;4.748;2024-01-06T21:51:07;5.53;;;3.20;;
74963;SDS011;63521;51.900;4.748;2024-01-06T21:53:33;6.25;;;3.17;;
74963;SDS011;63521;51.900;4.748;2024-01-06T21:55:58;5.55;;;3.25;;
74963;SDS011;63521;51.900;4.748;2024-01-06T21:58:24;6.63;;;3.08;;
74963;SDS011;63521;51.900;4.748;2024-01-06T22:00:49;5.20;;;3.17;;
74963;SDS011;63521;51.900;4.748;2024-01-06T22:03:16;6.07;;;3.50;;
74963;SDS011;63521;51.900;4.748;2024-01-06T22:05:41;5.18;;;3.05;;
74963;SDS011;63521;51.900;4.748;2024-01-06T22:08:06;6.47;;;3.10;;
74963;SDS011;63521;51.900;4.748;2024-01-06T22:10:32;5.65;;;3.17;;
74963;SDS011;63521;51.900;4.748;2024-01-06T22:13:01;6.90;;;3.38;;
74963;SDS011;63521;51.900;4.748;2024-01-06T22:15:28;6.05;;;3.08;;
74963;SDS011;63521;51.900;4.748;2024-01-06T22:17:54;5.75;;;3.08;;
74963;SDS011;63521;51.900;4.748;2024-01-06T22:20:20;6.75;;;3.33;;
74963;SDS011;63521;51.900;4.748;2024-01-06T22:22:45;5.55;;;3.10;;
74963;SDS011;63521;51.900;4.748;2024-01-06T22:25:11;8.23;;;3.30;;
74963;SDS011;63521;51.900;4.748;2024-01-06T22:27:36;5.15;;;3.00;;
74963;SDS011;63521;51.900;4.748;2024-01-06T22:30:02;7.50;;;3.35;;
74963;SDS011;63521;51.900;4.748;2024-01-06T22:32:28;6.05;;;3.28;;
74963;SDS011;63521;51.900;4.748;2024-01-06T22:34:53;5.50;;;3.28;;
74963;SDS011;63521;51.900;4.748;2024-01-06T22:37:19;6.50;;;3.50;;
74963;SDS011;63521;51.900;4.748;2024-01-06T22:39:45;6.30;;;3.22;;
74963;SDS011;63521;51.900;4.748;2024-01-06T22:42:10;6.07;;;3.45;;
74963;SDS011;63521;51.900;4.748;2024-01-06T22:44:36;6.72;;;3.20;;
74963;SDS011;63521;51.900;4.748;2024-01-06T22:47:01;6.90;;;3.75;;
74963;SDS011;63521;51.900;4.748;2024-01-06T22:49:27;6.68;;;3.67;;
74963;SDS011;63521;51.900;4.748;2024-01-06T22:51:53;6.43;;;3.38;;
74963;SDS011;63521;51.900;4.748;2024-01-06T22:54:18;7.32;;;3.47;;
74963;SDS011;63521;51.900;4.748;2024-01-06T22:56:44;5.97;;;3.47;;
74963;SDS011;63521;51.900;4.748;2024-01-06T22:59:09;7.05;;;3.58;;
74963;SDS011;63521;51.900;4.748;2024-01-06T23:01:34;7.20;;;3.33;;
74963;SDS011;63521;51.900;4.748;2024-01-06T23:04:00;7.30;;;3.60;;
74963;SDS011;63521;51.900;4.748;2024-01-06T23:06:25;7.15;;;3.92;;
74963;SDS011;63521;51.900;4.748;2024-01-06T23:08:51;7.53;;;3.85;;
74963;SDS011;63521;51.900;4.748;2024-01-06T23:11:17;7.53;;;3.80;;
74963;SDS011;63521;51.900;4.748;2024-01-06T23:13:44;6.72;;;3.40;;
74963;SDS011;63521;51.900;4.748;2024-01-06T23:16:09;6.50;;;3.65;;
74963;SDS011;63521;51.900;4.748;2024-01-06T23:18:35;7.90;;;3.78;;
74963;SDS011;63521;51.900;4.748;2024-01-06T23:21:01;6.85;;;3.83;;
74963;SDS011;63521;51.900;4.748;2024-01-06T23:23:29;6.57;;;3.55;;
74963;SDS011;63521;51.900;4.748;2024-01-06T23:25:54;6.32;;;3.50;;
74963;SDS011;63521;51.900;4.748;2024-01-06T23:28:20;7.32;;;3.75;;
74963;SDS011;63521;51.900;4.748;2024-01-06T23:30:46;7.00;;;3.58;;
74963;SDS011;63521;51.900;4.748;2024-01-06T23:33:13;6.35;;;3.22;;
74963;SDS011;63521;51.900;4.748;2024-01-06T23:35:38;6.22;;;3.28;;
74963;SDS011;63521;51.900;4.748;2024-01-06T23:38:05;6.78;;;3.67;;
74963;SDS011;63521;51.900;4.748;2024-01-06T23:40:31;8.75;;;4.15;;
74963;SDS011;63521;51.900;4.748;2024-01-06T23:42:56;7.05;;;3.40;;
74963;SDS011;63521;51.900;4.748;2024-01-06T23:45:22;7.32;;;3.92;;
74963;SDS011;63521;51.900;4.748;2024-01-06T23:47:48;7.38;;;3.83;;
74963;SDS011;63521;51.900;4.748;2024-01-06T23:50:15;7.82;;;4.65;;
74963;SDS011;63521;51.900;4.748;2024-01-06T23:52:41;7.05;;;3.60;;
74963;SDS011;63521;51.900;4.748;2024-01-06T23:55:07;6.70;;;3.60;;
74963;SDS011;63521;51.900;4.748;2024-01-06T23:57:33;6.15;;;3.35;;
74963;SDS011;63521;51.900;4.748;2024-01-06T23:59:58;7.53;;;3.78;;
